sensor_id;sensor_type;location;lat;lon;timestamp;P1;durP1;ratioP1;P2;durP2;ratioP2
55316;SDS011;41178;48.956;8.130;2022-10-31T00:04:04;14.60;;;5.97;;
55316;SDS011;41178;48.956;8.130;2022-10-31T00:09:06;8.47;;;5.93;;
55316;SDS011;41178;48.956;8.130;2022-10-31T00:14:08;7.93;;;6.13;;
55316;SDS011;41178;48.956;8.130;2022-10-31T00:19:10;11.60;;;6.27;;
55316;SDS011;41178;48.956;8.130;2022-10-31T00:24:11;9.73;;;6.10;;
55316;SDS011;41178;48.956;8.130;2022-10-31T00:29:13;11.60;;;5.93;;
55316;SDS011;41178;48.956;8.130;2022-10-31T00:34:14;8.57;;;5.53;;
55316;SDS011;41178;48.956;8.130;2022-10-31T00:39:16;10.57;;;5.70;;
55316;SDS011;41178;48.956;8.130;2022-10-31T00:44:18;13.60;;;6.57;;
55316;SDS011;41178;48.956;8.130;2022-10-31T00:49:19;10.63;;;6.57;;
55316;SDS011;41178;48.956;8.130;2022-10-31T00:54:27;10.87;;;6.63;;
55316;SDS011;41178;48.956;8.130;2022-10-31T00:59:29;11.43;;;6.50;;
55316;SDS011;41178;48.956;8.130;2022-10-31T01:04:30;10.00;;;6.33;;
55316;SDS011;41178;48.956;8.130;2022-10-31T01:09:32;8.70;;;6.27;;
55316;SDS011;41178;48.956;8.130;2022-10-31T01:14:34;9.43;;;6.23;;
55316;SDS011;41178;48.956;8.130;2022-10-31T01:19:35;11.33;;;6.83;;
55316;SDS011;41178;48.956;8.130;2022-10-31T01:24:37;12.17;;;6.37;;
55316;SDS011;41178;48.956;8.130;2022-10-31T01:29:38;11.70;;;7.20;;
55316;SDS011;41178;48.956;8.130;2022-10-31T01:34:40;10.10;;;7.27;;
55316;SDS011;41178;48.956;8.130;2022-10-31T01:39:42;17.07;;;7.80;;
55316;SDS011;41178;48.956;8.130;2022-10-31T01:44:48;12.57;;;7.43;;
55316;SDS011;41178;48.956;8.130;2022-10-31T01:49:53;9.03;;;6.73;;
55316;SDS011;41178;48.956;8.130;2022-10-31T02:00:33;9.37;;;6.27;;
55316;SDS011;41178;48.956;8.130;2022-10-31T02:05:35;11.10;;;6.60;;
55316;SDS011;41178;48.956;8.130;2022-10-31T02:10:37;11.90;;;6.67;;
55316;SDS011;41178;48.956;8.130;2022-10-31T02:15:40;9.27;;;6.90;;
55316;SDS011;41178;48.956;8.130;2022-10-31T02:21:03;10.93;;;6.47;;
55316;SDS011;41178;48.956;8.130;2022-10-31T02:31:40;12.37;;;7.20;;
55316;SDS011;41178;48.956;8.130;2022-10-31T02:42:18;14.30;;;7.33;;
55316;SDS011;41178;48.956;8.130;2022-10-31T02:47:32;10.67;;;6.63;;
55316;SDS011;41178;48.956;8.130;2022-10-31T02:52:37;11.53;;;6.60;;
55316;SDS011;41178;48.956;8.130;2022-10-31T02:57:39;10.60;;;6.33;;
55316;SDS011;41178;48.956;8.130;2022-10-31T03:07:59;11.33;;;7.30;;
55316;SDS011;41178;48.956;8.130;2022-10-31T03:24:06;9.10;;;6.20;;
55316;SDS011;41178;48.956;8.130;2022-10-31T03:29:12;7.13;;;5.07;;
55316;SDS011;41178;48.956;8.130;2022-10-31T03:34:17;8.83;;;6.10;;
55316;SDS011;41178;48.956;8.130;2022-10-31T03:39:21;11.90;;;5.90;;
55316;SDS011;41178;48.956;8.130;2022-10-31T03:44:24;11.17;;;5.20;;
55316;SDS011;41178;48.956;8.130;2022-10-31T03:49:28;7.77;;;5.10;;
55316;SDS011;41178;48.956;8.130;2022-10-31T03:59:58;7.53;;;5.07;;
55316;SDS011;41178;48.956;8.130;2022-10-31T04:05:08;8.43;;;5.13;;
55316;SDS011;41178;48.956;8.130;2022-10-31T04:10:13;10.23;;;5.23;;
55316;SDS011;41178;48.956;8.130;2022-10-31T04:15:17;10.03;;;5.27;;
55316;SDS011;41178;48.956;8.130;2022-10-31T04:20:28;8.50;;;5.13;;
55316;SDS011;41178;48.956;8.130;2022-10-31T04:25:31;9.57;;;5.27;;
55316;SDS011;41178;48.956;8.130;2022-10-31T04:30:33;9.10;;;5.57;;
55316;SDS011;41178;48.956;8.130;2022-10-31T04:35:35;10.33;;;5.50;;
55316;SDS011;41178;48.956;8.130;2022-10-31T04:40:36;8.80;;;5.77;;
55316;SDS011;41178;48.956;8.130;2022-10-31T04:45:38;10.47;;;5.43;;
55316;SDS011;41178;48.956;8.130;2022-10-31T04:50:40;11.23;;;6.07;;
55316;SDS011;41178;48.956;8.130;2022-10-31T04:55:42;10.97;;;6.50;;
55316;SDS011;41178;48.956;8.130;2022-10-31T05:00:43;12.27;;;6.23;;
55316;SDS011;41178;48.956;8.130;2022-10-31T05:05:45;15.03;;;5.97;;
55316;SDS011;41178;48.956;8.130;2022-10-31T05:10:46;8.37;;;6.53;;
55316;SDS011;41178;48.956;8.130;2022-10-31T05:15:49;10.73;;;6.87;;
55316;SDS011;41178;48.956;8.130;2022-10-31T05:20:51;10.70;;;8.40;;
55316;SDS011;41178;48.956;8.130;2022-10-31T05:25:53;14.73;;;7.33;;
55316;SDS011;41178;48.956;8.130;2022-10-31T05:30:55;9.97;;;7.43;;
55316;SDS011;41178;48.956;8.130;2022-10-31T05:35:57;12.77;;;6.20;;
55316;SDS011;41178;48.956;8.130;2022-10-31T05:40:58;9.33;;;5.80;;
55316;SDS011;41178;48.956;8.130;2022-10-31T05:46:03;9.73;;;7.10;;
55316;SDS011;41178;48.956;8.130;2022-10-31T05:51:04;10.93;;;7.40;;
55316;SDS011;41178;48.956;8.130;2022-10-31T05:56:06;10.47;;;7.60;;
55316;SDS011;41178;48.956;8.130;2022-10-31T06:01:08;11.90;;;7.33;;
55316;SDS011;41178;48.956;8.130;2022-10-31T06:06:10;11.10;;;7.70;;
55316;SDS011;41178;48.956;8.130;2022-10-31T06:11:11;13.60;;;7.43;;
55316;SDS011;41178;48.956;8.130;2022-10-31T06:16:13;12.43;;;8.23;;
55316;SDS011;41178;48.956;8.130;2022-10-31T06:21:14;11.63;;;8.03;;
55316;SDS011;41178;48.956;8.130;2022-10-31T06:26:19;11.00;;;8.10;;
55316;SDS011;41178;48.956;8.130;2022-10-31T06:31:21;9.27;;;7.03;;
55316;SDS011;41178;48.956;8.130;2022-10-31T06:36:22;9.53;;;6.83;;
55316;SDS011;41178;48.956;8.130;2022-10-31T06:41:24;10.70;;;6.90;;
55316;SDS011;41178;48.956;8.130;2022-10-31T06:46:25;10.27;;;7.57;;
55316;SDS011;41178;48.956;8.130;2022-10-31T06:51:27;13.67;;;7.70;;
55316;SDS011;41178;48.956;8.130;2022-10-31T06:56:29;11.57;;;7.57;;
55316;SDS011;41178;48.956;8.130;2022-10-31T07:01:30;14.60;;;8.97;;
55316;SDS011;41178;48.956;8.130;2022-10-31T07:06:32;8.90;;;8.00;;
55316;SDS011;41178;48.956;8.130;2022-10-31T07:11:34;13.60;;;7.40;;
55316;SDS011;41178;48.956;8.130;2022-10-31T07:16:35;10.10;;;6.90;;
55316;SDS011;41178;48.956;8.130;2022-10-31T07:21:37;12.80;;;7.23;;
55316;SDS011;41178;48.956;8.130;2022-10-31T07:26:38;16.07;;;6.57;;
55316;SDS011;41178;48.956;8.130;2022-10-31T07:31:40;12.27;;;7.40;;
55316;SDS011;41178;48.956;8.130;2022-10-31T07:36:42;16.50;;;7.30;;
55316;SDS011;41178;48.956;8.130;2022-10-31T07:41:43;11.17;;;6.67;;
55316;SDS011;41178;48.956;8.130;2022-10-31T07:46:45;8.20;;;6.53;;
55316;SDS011;41178;48.956;8.130;2022-10-31T07:51:46;12.70;;;6.77;;
55316;SDS011;41178;48.956;8.130;2022-10-31T07:56:48;12.10;;;7.10;;
55316;SDS011;41178;48.956;8.130;2022-10-31T08:01:49;10.20;;;6.87;;
55316;SDS011;41178;48.956;8.130;2022-10-31T08:06:51;11.77;;;7.47;;
55316;SDS011;41178;48.956;8.130;2022-10-31T08:11:53;11.27;;;6.97;;
55316;SDS011;41178;48.956;8.130;2022-10-31T08:16:55;12.77;;;7.13;;
55316;SDS011;41178;48.956;8.130;2022-10-31T08:21:56;10.13;;;7.20;;
55316;SDS011;41178;48.956;8.130;2022-10-31T08:26:59;10.20;;;7.17;;
55316;SDS011;41178;48.956;8.130;2022-10-31T08:32:00;10.07;;;8.37;;
55316;SDS011;41178;48.956;8.130;2022-10-31T08:37:02;11.03;;;7.43;;
55316;SDS011;41178;48.956;8.130;2022-10-31T08:42:04;11.40;;;7.33;;
55316;SDS011;41178;48.956;8.130;2022-10-31T08:47:05;11.10;;;7.30;;
55316;SDS011;41178;48.956;8.130;2022-10-31T08:52:07;8.43;;;7.00;;
55316;SDS011;41178;48.956;8.130;2022-10-31T08:57:14;14.07;;;7.47;;
55316;SDS011;41178;48.956;8.130;2022-10-31T09:02:16;10.27;;;6.93;;
55316;SDS011;41178;48.956;8.130;2022-10-31T09:07:17;9.20;;;6.67;;
55316;SDS011;41178;48.956;8.130;2022-10-31T09:12:21;10.30;;;6.43;;
55316;SDS011;41178;48.956;8.130;2022-10-31T09:17:23;8.17;;;5.90;;
55316;SDS011;41178;48.956;8.130;2022-10-31T09:22:25;8.83;;;6.30;;
55316;SDS011;41178;48.956;8.130;2022-10-31T09:27:27;9.33;;;6.70;;
55316;SDS011;41178;48.956;8.130;2022-10-31T09:32:28;11.20;;;6.40;;
55316;SDS011;41178;48.956;8.130;2022-10-31T09:37:30;6.60;;;5.57;;
55316;SDS011;41178;48.956;8.130;2022-10-31T09:42:38;8.37;;;5.87;;
55316;SDS011;41178;48.956;8.130;2022-10-31T09:53:13;8.63;;;5.77;;
55316;SDS011;41178;48.956;8.130;2022-10-31T09:58:25;12.73;;;5.83;;
55316;SDS011;41178;48.956;8.130;2022-10-31T10:03:39;8.80;;;6.27;;
55316;SDS011;41178;48.956;8.130;2022-10-31T10:08:45;9.37;;;5.17;;
55316;SDS011;41178;48.956;8.130;2022-10-31T10:19:02;11.93;;;5.60;;
55316;SDS011;41178;48.956;8.130;2022-10-31T10:29:47;7.53;;;5.80;;
55316;SDS011;41178;48.956;8.130;2022-10-31T10:34:55;11.87;;;5.50;;
55316;SDS011;41178;48.956;8.130;2022-10-31T10:40:15;9.37;;;5.37;;
55316;SDS011;41178;48.956;8.130;2022-10-31T10:50:47;8.90;;;5.37;;
55316;SDS011;41178;48.956;8.130;2022-10-31T10:55:52;11.13;;;5.30;;
55316;SDS011;41178;48.956;8.130;2022-10-31T11:06:18;7.37;;;5.00;;
55316;SDS011;41178;48.956;8.130;2022-10-31T11:11:24;8.40;;;4.80;;
55316;SDS011;41178;48.956;8.130;2022-10-31T11:16:38;6.73;;;5.00;;
55316;SDS011;41178;48.956;8.130;2022-10-31T11:21:43;11.30;;;5.73;;
55316;SDS011;41178;48.956;8.130;2022-10-31T11:27:03;10.40;;;5.10;;
55316;SDS011;41178;48.956;8.130;2022-10-31T11:32:24;8.40;;;5.20;;
55316;SDS011;41178;48.956;8.130;2022-10-31T11:37:28;7.90;;;4.33;;
55316;SDS011;41178;48.956;8.130;2022-10-31T11:42:37;6.70;;;4.30;;
55316;SDS011;41178;48.956;8.130;2022-10-31T11:47:42;9.10;;;4.87;;
55316;SDS011;41178;48.956;8.130;2022-10-31T11:52:55;18.60;;;6.07;;
55316;SDS011;41178;48.956;8.130;2022-10-31T11:57:57;9.20;;;4.43;;
55316;SDS011;41178;48.956;8.130;2022-10-31T12:08:25;5.80;;;4.47;;
55316;SDS011;41178;48.956;8.130;2022-10-31T12:13:39;9.37;;;4.30;;
55316;SDS011;41178;48.956;8.130;2022-10-31T12:39:53;5.93;;;3.93;;
55316;SDS011;41178;48.956;8.130;2022-10-31T12:50:10;8.07;;;4.67;;
55316;SDS011;41178;48.956;8.130;2022-10-31T13:00:40;7.80;;;4.50;;
55316;SDS011;41178;48.956;8.130;2022-10-31T13:05:46;7.47;;;4.50;;
55316;SDS011;41178;48.956;8.130;2022-10-31T13:11:02;10.40;;;4.70;;
55316;SDS011;41178;48.956;8.130;2022-10-31T13:16:18;8.90;;;4.40;;
55316;SDS011;41178;48.956;8.130;2022-10-31T13:21:23;8.70;;;5.23;;
55316;SDS011;41178;48.956;8.130;2022-10-31T13:31:42;10.57;;;4.63;;
55316;SDS011;41178;48.956;8.130;2022-10-31T13:36:47;10.37;;;4.87;;
55316;SDS011;41178;48.956;8.130;2022-10-31T13:47:21;8.10;;;6.17;;
55316;SDS011;41178;48.956;8.130;2022-10-31T13:52:27;10.90;;;5.83;;
55316;SDS011;41178;48.956;8.130;2022-10-31T13:57:37;8.47;;;5.77;;
55316;SDS011;41178;48.956;8.130;2022-10-31T14:02:44;8.47;;;5.40;;
55316;SDS011;41178;48.956;8.130;2022-10-31T14:07:49;8.50;;;5.20;;
55316;SDS011;41178;48.956;8.130;2022-10-31T14:13:04;7.97;;;5.10;;
55316;SDS011;41178;48.956;8.130;2022-10-31T14:18:28;8.87;;;5.03;;
55316;SDS011;41178;48.956;8.130;2022-10-31T14:23:33;9.20;;;5.03;;
55316;SDS011;41178;48.956;8.130;2022-10-31T14:28:37;7.67;;;4.90;;
55316;SDS011;41178;48.956;8.130;2022-10-31T14:33:40;11.53;;;5.03;;
55316;SDS011;41178;48.956;8.130;2022-10-31T14:50:12;8.40;;;5.00;;
55316;SDS011;41178;48.956;8.130;2022-10-31T14:55:35;9.90;;;4.90;;
55316;SDS011;41178;48.956;8.130;2022-10-31T15:05:12;8.10;;;5.10;;
55316;SDS011;41178;48.956;8.130;2022-10-31T15:10:25;5.93;;;5.10;;
55316;SDS011;41178;48.956;8.130;2022-10-31T15:15:30;8.90;;;5.83;;
55316;SDS011;41178;48.956;8.130;2022-10-31T15:20:36;9.40;;;5.90;;
55316;SDS011;41178;48.956;8.130;2022-10-31T15:25:44;10.57;;;6.30;;
55316;SDS011;41178;48.956;8.130;2022-10-31T15:30:53;10.40;;;5.87;;
55316;SDS011;41178;48.956;8.130;2022-10-31T15:36:00;7.07;;;5.63;;
55316;SDS011;41178;48.956;8.130;2022-10-31T15:41:04;8.67;;;5.47;;
55316;SDS011;41178;48.956;8.130;2022-10-31T15:46:23;12.27;;;6.10;;
55316;SDS011;41178;48.956;8.130;2022-10-31T15:51:25;8.73;;;6.03;;
55316;SDS011;41178;48.956;8.130;2022-10-31T15:56:32;13.90;;;8.13;;
55316;SDS011;41178;48.956;8.130;2022-10-31T16:01:34;9.40;;;7.10;;
55316;SDS011;41178;48.956;8.130;2022-10-31T16:06:36;14.17;;;7.97;;
55316;SDS011;41178;48.956;8.130;2022-10-31T16:11:38;9.43;;;6.77;;
55316;SDS011;41178;48.956;8.130;2022-10-31T16:16:42;12.77;;;6.67;;
55316;SDS011;41178;48.956;8.130;2022-10-31T16:21:48;10.80;;;6.07;;
55316;SDS011;41178;48.956;8.130;2022-10-31T16:26:54;9.50;;;5.50;;
55316;SDS011;41178;48.956;8.130;2022-10-31T16:32:22;10.00;;;7.40;;
55316;SDS011;41178;48.956;8.130;2022-10-31T16:37:27;11.30;;;6.63;;
55316;SDS011;41178;48.956;8.130;2022-10-31T16:42:29;13.43;;;6.37;;
55316;SDS011;41178;48.956;8.130;2022-10-31T16:47:30;11.60;;;6.67;;
55316;SDS011;41178;48.956;8.130;2022-10-31T16:52:32;11.93;;;7.03;;
55316;SDS011;41178;48.956;8.130;2022-10-31T16:57:49;9.27;;;6.33;;
55316;SDS011;41178;48.956;8.130;2022-10-31T17:02:56;15.10;;;13.60;;
55316;SDS011;41178;48.956;8.130;2022-10-31T17:07:58;13.77;;;7.13;;
55316;SDS011;41178;48.956;8.130;2022-10-31T17:13:01;12.17;;;7.43;;
55316;SDS011;41178;48.956;8.130;2022-10-31T17:18:05;9.37;;;6.67;;
55316;SDS011;41178;48.956;8.130;2022-10-31T17:23:08;10.57;;;6.80;;
55316;SDS011;41178;48.956;8.130;2022-10-31T17:28:11;12.80;;;7.60;;
55316;SDS011;41178;48.956;8.130;2022-10-31T17:33:15;11.87;;;7.90;;
55316;SDS011;41178;48.956;8.130;2022-10-31T17:38:17;13.53;;;8.60;;
55316;SDS011;41178;48.956;8.130;2022-10-31T17:43:19;15.30;;;10.17;;
55316;SDS011;41178;48.956;8.130;2022-10-31T17:48:20;16.93;;;10.73;;
55316;SDS011;41178;48.956;8.130;2022-10-31T17:53:22;17.03;;;11.40;;
55316;SDS011;41178;48.956;8.130;2022-10-31T17:58:24;17.57;;;11.87;;
55316;SDS011;41178;48.956;8.130;2022-10-31T18:03:25;21.60;;;12.40;;
55316;SDS011;41178;48.956;8.130;2022-10-31T18:08:28;15.20;;;11.07;;
55316;SDS011;41178;48.956;8.130;2022-10-31T18:13:31;16.97;;;10.40;;
55316;SDS011;41178;48.956;8.130;2022-10-31T18:18:33;18.87;;;10.57;;
55316;SDS011;41178;48.956;8.130;2022-10-31T18:23:35;17.90;;;11.13;;
55316;SDS011;41178;48.956;8.130;2022-10-31T18:28:36;19.53;;;10.97;;
55316;SDS011;41178;48.956;8.130;2022-10-31T18:33:38;22.13;;;15.43;;
55316;SDS011;41178;48.956;8.130;2022-10-31T18:38:42;18.73;;;14.13;;
55316;SDS011;41178;48.956;8.130;2022-10-31T18:43:47;15.30;;;11.80;;
55316;SDS011;41178;48.956;8.130;2022-10-31T18:48:48;21.90;;;13.93;;
55316;SDS011;41178;48.956;8.130;2022-10-31T18:53:54;21.87;;;15.63;;
55316;SDS011;41178;48.956;8.130;2022-10-31T18:58:58;23.70;;;14.87;;
55316;SDS011;41178;48.956;8.130;2022-10-31T19:04:03;21.20;;;13.97;;
55316;SDS011;41178;48.956;8.130;2022-10-31T19:09:06;17.73;;;13.00;;
55316;SDS011;41178;48.956;8.130;2022-10-31T19:14:10;16.60;;;12.50;;
55316;SDS011;41178;48.956;8.130;2022-10-31T19:19:13;20.30;;;14.93;;
55316;SDS011;41178;48.956;8.130;2022-10-31T19:24:15;22.97;;;17.20;;
55316;SDS011;41178;48.956;8.130;2022-10-31T19:29:16;44.40;;;26.53;;
55316;SDS011;41178;48.956;8.130;2022-10-31T19:34:18;40.77;;;25.97;;
55316;SDS011;41178;48.956;8.130;2022-10-31T19:39:20;19.30;;;11.40;;
55316;SDS011;41178;48.956;8.130;2022-10-31T19:44:21;13.20;;;9.27;;
55316;SDS011;41178;48.956;8.130;2022-10-31T19:49:23;17.20;;;12.37;;
55316;SDS011;41178;48.956;8.130;2022-10-31T19:54:25;15.50;;;11.27;;
55316;SDS011;41178;48.956;8.130;2022-10-31T19:59:26;23.60;;;15.23;;
55316;SDS011;41178;48.956;8.130;2022-10-31T20:04:28;15.00;;;10.17;;
55316;SDS011;41178;48.956;8.130;2022-10-31T20:09:29;22.87;;;16.23;;
55316;SDS011;41178;48.956;8.130;2022-10-31T20:14:31;19.67;;;10.73;;
55316;SDS011;41178;48.956;8.130;2022-10-31T20:19:33;13.30;;;8.57;;
55316;SDS011;41178;48.956;8.130;2022-10-31T20:24:35;12.17;;;8.30;;
55316;SDS011;41178;48.956;8.130;2022-10-31T20:29:36;12.93;;;8.83;;
55316;SDS011;41178;48.956;8.130;2022-10-31T20:34:38;11.63;;;7.57;;
55316;SDS011;41178;48.956;8.130;2022-10-31T20:39:39;11.70;;;7.73;;
55316;SDS011;41178;48.956;8.130;2022-10-31T20:44:41;13.70;;;7.80;;
55316;SDS011;41178;48.956;8.130;2022-10-31T20:49:42;16.30;;;9.17;;
55316;SDS011;41178;48.956;8.130;2022-10-31T20:55:08;14.03;;;9.10;;
55316;SDS011;41178;48.956;8.130;2022-10-31T21:00:35;15.60;;;9.13;;
55316;SDS011;41178;48.956;8.130;2022-10-31T21:05:37;15.60;;;10.13;;
55316;SDS011;41178;48.956;8.130;2022-10-31T21:10:39;13.73;;;9.53;;
55316;SDS011;41178;48.956;8.130;2022-10-31T21:16:05;11.47;;;8.90;;
55316;SDS011;41178;48.956;8.130;2022-10-31T21:21:35;13.67;;;8.60;;
55316;SDS011;41178;48.956;8.130;2022-10-31T21:27:01;13.20;;;9.10;;
55316;SDS011;41178;48.956;8.130;2022-10-31T21:32:28;15.60;;;8.80;;
55316;SDS011;41178;48.956;8.130;2022-10-31T21:37:54;12.93;;;9.90;;
55316;SDS011;41178;48.956;8.130;2022-10-31T21:43:22;17.50;;;9.60;;
55316;SDS011;41178;48.956;8.130;2022-10-31T21:48:48;15.00;;;9.67;;
55316;SDS011;41178;48.956;8.130;2022-10-31T21:54:14;13.37;;;10.93;;
55316;SDS011;41178;48.956;8.130;2022-10-31T21:59:52;13.77;;;10.33;;
55316;SDS011;41178;48.956;8.130;2022-10-31T22:05:17;12.47;;;10.20;;
55316;SDS011;41178;48.956;8.130;2022-10-31T22:10:43;13.43;;;9.70;;
55316;SDS011;41178;48.956;8.130;2022-10-31T22:16:11;12.73;;;8.50;;
55316;SDS011;41178;48.956;8.130;2022-10-31T22:21:44;15.50;;;11.40;;
55316;SDS011;41178;48.956;8.130;2022-10-31T22:27:11;13.20;;;9.63;;
55316;SDS011;41178;48.956;8.130;2022-10-31T22:32:36;15.63;;;12.70;;
55316;SDS011;41178;48.956;8.130;2022-10-31T22:38:03;15.07;;;9.80;;
55316;SDS011;41178;48.956;8.130;2022-10-31T22:43:30;16.70;;;9.47;;
55316;SDS011;41178;48.956;8.130;2022-10-31T22:48:57;14.30;;;9.47;;
55316;SDS011;41178;48.956;8.130;2022-10-31T22:54:24;18.00;;;11.73;;
55316;SDS011;41178;48.956;8.130;2022-10-31T22:59:50;18.43;;;14.67;;
55316;SDS011;41178;48.956;8.130;2022-10-31T23:05:16;13.70;;;10.43;;
55316;SDS011;41178;48.956;8.130;2022-10-31T23:10:42;13.53;;;9.87;;
55316;SDS011;41178;48.956;8.130;2022-10-31T23:16:09;15.00;;;9.13;;
55316;SDS011;41178;48.956;8.130;2022-10-31T23:21:37;12.87;;;8.60;;
55316;SDS011;41178;48.956;8.130;2022-10-31T23:27:19;13.17;;;8.77;;
